Time;durP1;ratioP1;P1;durP2;ratioP2;P2;SDS_P1;SDS_P2;PMS_P1;PMS_P2;Temp;Humidity;BMP_temperature;BMP_pressure;BME280_temperature;BME280_humidity;BME280_pressure;Samples;Min_cycle;Max_cycle;Signal;HPM_P1;HPM_P2
2022/03/13 00:02:15;;;;;;;11.63;5.03;;;;;;;;;;5070408;28;20055;-55
2022/03/13 00:04:42;;;;;;;;;;;;;;;;;;5073041;28;20052;-53
2022/03/13 00:07:14;;;;;;;13.45;5.25;;;;;;;;;;5067805;28;19952;-52
2022/03/13 00:09:40;;;;;;;11.55;5.55;;;;;;;;;;5065637;28;20079;-55
2022/03/13 00:12:10;;;;;;;11.48;5.45;;;;;;;;;;5065899;28;20143;-51
2022/03/13 00:14:43;;;;;;;10.35;5.10;;;;;;;;;;5067970;28;20057;-53
2022/03/13 00:17:11;;;;;;;11.98;5.03;;;;;;;;;;5062188;28;20057;-56
2022/03/13 00:19:38;;;;;;;11.07;5.17;;;;;;;;;;5068528;28;20053;-55
2022/03/13 00:22:06;;;;;;;10.63;5.30;;;;;;;;;;5061663;28;20060;-58
2022/03/13 00:24:33;;;;;;;14.55;4.53;;;;;;;;;;5068281;28;20060;-57
2022/03/13 00:27:00;;;;;;;10.85;4.70;;;;;;;;;;5062003;28;20052;-55
2022/03/13 00:29:28;;;;;;;10.80;4.72;;;;;;;;;;5069363;28;20080;-54
2022/03/13 00:31:55;;;;;;;13.45;5.35;;;;;;;;;;5061941;28;20059;-54
2022/03/13 00:34:22;;;;;;;9.82;4.40;;;;;;;;;;5068131;28;20052;-53
2022/03/13 00:36:49;;;;;;;13.07;4.43;;;;;;;;;;5062845;28;20056;-53
2022/03/13 00:39:16;;;;;;;10.20;4.30;;;;;;;;;;5071010;28;20052;-52
2022/03/13 00:41:44;;;;;;;9.60;4.40;;;;;;;;;;5075519;28;20052;-53
2022/03/13 00:44:11;;;;;;;10.45;3.75;;;;;;;;;;5067927;28;20110;-55
2022/03/13 00:46:39;;;;;;;11.18;4.88;;;;;;;;;;5062357;28;20132;-56
2022/03/13 00:49:06;;;;;;;9.80;4.25;;;;;;;;;;5068071;28;20083;-59
2022/03/13 00:51:33;;;;;;;9.02;4.15;;;;;;;;;;5067358;28;20083;-56
2022/03/13 00:54:01;;;;;;;10.75;4.13;;;;;;;;;;5046224;28;20120;-56
2022/03/13 00:56:27;;;;;;;9.87;4.10;;;;;;;;;;5050563;28;20105;-55
2022/03/13 00:58:54;;;;;;;12.27;3.88;;;;;;;;;;5056127;28;20048;-53
2022/03/13 01:01:20;;;;;;;9.05;4.55;;;;;;;;;;5067213;28;20053;-52
2022/03/13 01:03:51;;;;;;;13.15;5.00;;;;;;;;;;5061653;28;20076;-59
2022/03/13 01:06:18;;;;;;;10.73;4.47;;;;;;;;;;5067632;28;20049;-57
2022/03/13 01:08:45;;;;;;;8.45;3.65;;;;;;;;;;5061687;28;20060;-55
2022/03/13 01:11:12;;;;;;;10.98;4.22;;;;;;;;;;5067122;28;20056;-51
2022/03/13 01:13:39;;;;;;;11.98;4.15;;;;;;;;;;5059958;28;20059;-53
2022/03/13 01:16:11;;;;;;;12.50;4.00;;;;;;;;;;5067037;28;20052;-52
2022/03/13 01:18:40;;;;;;;11.00;4.03;;;;;;;;;;5051756;28;20158;-56
2022/03/13 01:21:08;;;;;;;9.15;4.13;;;;;;;;;;5048072;28;20041;-55
2022/03/13 01:23:35;;;;;;;8.00;4.00;;;;;;;;;;5047081;28;20048;-57
2022/03/13 01:26:16;;;;;;;9.48;4.38;;;;;;;;;;5067601;28;20060;-56
2022/03/13 01:28:43;;;;;;;8.27;3.95;;;;;;;;;;5061810;28;20075;-57
2022/03/13 01:31:10;;;;;;;15.95;4.53;;;;;;;;;;5067402;28;20139;-56
2022/03/13 01:33:37;;;;;;;11.13;4.35;;;;;;;;;;5061959;28;20143;-53
2022/03/13 01:36:04;;;;;;;9.32;4.22;;;;;;;;;;5069455;28;20088;-52
2022/03/13 01:38:33;;;;;;;11.25;4.50;;;;;;;;;;5063501;28;20121;-53
2022/03/13 01:41:00;;;;;;;11.20;4.63;;;;;;;;;;5054846;28;20056;-53
2022/03/13 01:43:30;;;;;;;9.65;4.57;;;;;;;;;;5067370;28;20060;-57
2022/03/13 01:45:58;;;;;;;8.60;3.85;;;;;;;;;;5060660;28;20052;-56
2022/03/13 01:48:26;;;;;;;10.00;4.63;;;;;;;;;;5066873;28;20067;-52
2022/03/13 01:50:52;;;;;;;9.05;4.60;;;;;;;;;;5056453;28;20302;-55
2022/03/13 01:53:21;;;;;;;9.73;4.05;;;;;;;;;;5065930;28;20048;-54
2022/03/13 01:55:48;;;;;;;;;;;;;;;;;;5062747;28;20048;-53
2022/03/13 01:58:16;;;;;;;9.95;3.85;;;;;;;;;;5066734;28;19990;-56
2022/03/13 02:00:42;;;;;;;7.30;3.55;;;;;;;;;;5059847;28;20044;-55
2022/03/13 02:03:10;;;;;;;11.35;4.85;;;;;;;;;;5067135;28;20056;-58
2022/03/13 02:05:37;;;;;;;13.88;4.68;;;;;;;;;;5060452;28;20061;-52
2022/03/13 02:08:09;;;;;;;9.05;4.30;;;;;;;;;;5067336;28;20133;-52
2022/03/13 02:10:35;;;;;;;12.38;5.07;;;;;;;;;;5062380;28;20059;-49
2022/03/13 02:13:02;;;;;;;10.20;4.35;;;;;;;;;;5068715;28;20052;-52
2022/03/13 02:15:31;;;;;;;9.90;4.57;;;;;;;;;;5059936;28;20059;-57
2022/03/13 02:18:00;;;;;;;9.23;4.28;;;;;;;;;;5066038;28;20079;-54
2022/03/13 02:20:27;;;;;;;16.10;5.85;;;;;;;;;;5060745;28;20045;-53
2022/03/13 02:23:00;;;;;;;11.93;5.37;;;;;;;;;;5066086;28;20052;-52
2022/03/13 02:25:31;;;;;;;9.77;4.40;;;;;;;;;;5060678;28;20052;-50
2022/03/13 02:27:58;;;;;;;10.18;4.57;;;;;;;;;;5065984;28;20049;-48
2022/03/13 02:30:27;;;;;;;12.75;5.72;;;;;;;;;;5066326;28;20044;-51
2022/03/13 02:32:54;;;;;;;9.80;4.47;;;;;;;;;;5063069;28;20127;-54
2022/03/13 02:35:21;;;;;;;10.75;4.85;;;;;;;;;;5065937;28;20131;-50
2022/03/13 02:37:48;;;;;;;9.35;4.45;;;;;;;;;;5059714;28;20052;-55
2022/03/13 02:40:18;;;;;;;11.90;5.40;;;;;;;;;;5066440;28;20040;-53
2022/03/13 02:42:45;;;;;;;11.45;4.65;;;;;;;;;;5059704;28;20049;-58
2022/03/13 02:45:12;;;;;;;10.80;4.85;;;;;;;;;;5067982;28;20060;-53
2022/03/13 02:47:39;;;;;;;11.98;5.18;;;;;;;;;;5052618;28;20102;-51
2022/03/13 02:50:06;;;;;;;9.82;4.68;;;;;;;;;;5065341;28;20053;-55
2022/03/13 02:52:32;;;;;;;11.05;4.47;;;;;;;;;;5059371;28;20056;-58
2022/03/13 02:54:59;;;;;;;12.35;5.78;;;;;;;;;;5065830;28;20052;-54
2022/03/13 02:57:27;;;;;;;12.15;5.03;;;;;;;;;;5059960;28;20116;-53
2022/03/13 02:59:53;;;;;;;11.63;4.97;;;;;;;;;;5065925;28;20048;-52
2022/03/13 03:02:20;;;;;;;13.40;5.43;;;;;;;;;;5090366;23;20149;-50
2022/03/13 03:04:48;;;;;;;17.27;5.20;;;;;;;;;;4980384;28;20054;-54
2022/03/13 03:07:17;;;;;;;9.88;4.07;;;;;;;;;;4998519;28;20058;-58
2022/03/13 03:09:44;;;;;;;9.90;4.43;;;;;;;;;;5008377;28;20050;-55
2022/03/13 03:12:11;;;;;;;11.02;4.60;;;;;;;;;;4993940;28;20064;-55
2022/03/13 03:14:39;;;;;;;11.45;4.57;;;;;;;;;;4978820;28;20043;-61
2022/03/13 03:17:05;;;;;;;9.87;4.30;;;;;;;;;;4974740;28;20077;-61
2022/03/13 03:19:33;;;;;;;9.13;4.07;;;;;;;;;;4986461;28;20403;-62
2022/03/13 03:22:00;;;;;;;18.55;5.45;;;;;;;;;;5009757;28;20140;-55
2022/03/13 03:24:27;;;;;;;10.65;4.95;;;;;;;;;;4980841;28;20057;-58
2022/03/13 03:26:55;;;;;;;14.55;6.13;;;;;;;;;;5008771;28;20088;-55
2022/03/13 03:29:22;;;;;;;11.05;4.88;;;;;;;;;;5009937;28;20132;-58
2022/03/13 03:31:50;;;;;;;13.25;5.47;;;;;;;;;;4995790;28;20049;-55
2022/03/13 03:34:18;;;;;;;11.50;5.20;;;;;;;;;;4993217;28;20046;-59
2022/03/13 03:36:47;;;;;;;12.43;5.00;;;;;;;;;;4990661;28;20058;-57
2022/03/13 03:39:14;;;;;;;16.10;5.97;;;;;;;;;;4989682;28;20057;-56
2022/03/13 03:41:42;;;;;;;13.77;6.10;;;;;;;;;;4998685;28;20127;-56
2022/03/13 03:44:09;;;;;;;10.93;5.20;;;;;;;;;;4990322;28;20122;-55
2022/03/13 03:46:36;;;;;;;11.98;5.82;;;;;;;;;;4992647;28;20313;-58
2022/03/13 03:49:06;;;;;;;13.70;5.82;;;;;;;;;;4988870;28;20065;-55
2022/03/13 03:51:32;;;;;;;15.30;6.15;;;;;;;;;;5012620;28;20049;-56
2022/03/13 03:54:00;;;;;;;13.32;6.28;;;;;;;;;;5008596;28;20157;-57
2022/03/13 03:56:26;;;;;;;13.57;6.65;;;;;;;;;;5009113;28;20057;-55
2022/03/13 03:58:53;;;;;;;13.80;5.88;;;;;;;;;;5002144;28;20062;-49
2022/03/13 04:01:20;;;;;;;16.92;6.13;;;;;;;;;;4990271;28;20068;-59
2022/03/13 04:03:47;;;;;;;19.65;7.47;;;;;;;;;;5009608;28;20054;-55
2022/03/13 04:06:15;;;;;;;11.30;5.75;;;;;;;;;;4998540;28;20164;-55
2022/03/13 04:08:42;;;;;;;13.32;5.97;;;;;;;;;;4991514;28;20088;-54
2022/03/13 04:11:08;;;;;;;14.90;6.55;;;;;;;;;;4994964;28;20060;-53
2022/03/13 04:13:38;;;;;;;17.35;7.50;;;;;;;;;;4988922;28;20074;-56
2022/03/13 04:16:06;;;;;;;15.40;6.72;;;;;;;;;;4983280;28;20081;-57
2022/03/13 04:18:32;;;;;;;11.10;5.45;;;;;;;;;;5004992;28;20049;-53
2022/03/13 04:20:59;;;;;;;15.52;6.93;;;;;;;;;;4992773;28;20092;-58
2022/03/13 04:23:28;;;;;;;14.38;6.72;;;;;;;;;;4986769;28;20068;-59
2022/03/13 04:25:54;;;;;;;18.65;7.32;;;;;;;;;;4992652;28;20064;-58
2022/03/13 04:28:22;;;;;;;12.35;6.07;;;;;;;;;;4985861;28;20056;-60
2022/03/13 04:30:52;;;;;;;15.30;7.22;;;;;;;;;;4995381;28;20101;-56
2022/03/13 04:33:21;;;;;;;17.67;7.47;;;;;;;;;;5002835;28;20062;-53
2022/03/13 04:35:48;;;;;;;14.43;6.40;;;;;;;;;;5010175;28;20053;-62
2022/03/13 04:38:15;;;;;;;13.38;6.57;;;;;;;;;;5004484;28;20049;-61
2022/03/13 04:40:43;;;;;;;16.25;6.05;;;;;;;;;;5005775;28;20065;-52
2022/03/13 04:43:10;;;;;;;19.45;7.28;;;;;;;;;;4999794;28;20059;-48
2022/03/13 04:45:36;;;;;;;16.65;6.95;;;;;;;;;;5005042;28;20077;-58
2022/03/13 04:48:03;;;;;;;15.55;7.70;;;;;;;;;;4969991;28;20057;-53
2022/03/13 04:50:29;;;;;;;16.27;6.93;;;;;;;;;;5007632;28;20065;-59
2022/03/13 04:52:56;;;;;;;15.07;6.63;;;;;;;;;;5003776;28;20113;-59
2022/03/13 04:55:23;;;;;;;14.73;6.72;;;;;;;;;;5009633;28;20137;-54
2022/03/13 04:57:51;;;;;;;16.35;7.03;;;;;;;;;;5010847;28;20057;-50
2022/03/13 05:00:18;;;;;;;15.63;6.47;;;;;;;;;;5003792;28;20060;-56
2022/03/13 05:02:46;;;;;;;15.65;6.63;;;;;;;;;;4991008;28;20058;-58
2022/03/13 05:05:13;;;;;;;18.95;8.25;;;;;;;;;;5001875;28;20053;-59
2022/03/13 05:07:40;;;;;;;15.95;6.90;;;;;;;;;;4991402;28;20053;-55
2022/03/13 05:10:07;;;;;;;14.55;6.72;;;;;;;;;;5001471;28;20054;-59
2022/03/13 05:12:34;;;;;;;18.20;7.35;;;;;;;;;;4991210;28;20050;-52
2022/03/13 05:15:02;;;;;;;13.70;6.63;;;;;;;;;;4985741;28;20086;-52
2022/03/13 05:17:28;;;;;;;16.17;6.90;;;;;;;;;;5007259;28;20081;-55
2022/03/13 05:19:55;;;;;;;22.38;7.05;;;;;;;;;;4985246;28;20104;-57
2022/03/13 05:22:24;;;;;;;16.13;7.35;;;;;;;;;;4991699;28;20057;-56
2022/03/13 05:24:50;;;;;;;;;;;;;;;;;;4986259;28;20046;-51
2022/03/13 05:27:17;;;;;;;15.10;6.65;;;;;;;;;;4997870;28;19948;-55
2022/03/13 05:29:43;;;;;;;15.18;7.15;;;;;;;;;;4985213;28;20057;-55
2022/03/13 05:32:11;;;;;;;16.80;7.32;;;;;;;;;;4989778;28;20050;-58
2022/03/13 05:34:38;;;;;;;15.75;6.72;;;;;;;;;;4967911;28;20050;-53
2022/03/13 05:37:06;;;;;;;17.83;7.45;;;;;;;;;;5011313;28;20256;-52
2022/03/13 05:39:32;;;;;;;14.98;6.43;;;;;;;;;;5027131;28;20104;-56
2022/03/13 05:41:59;;;;;;;18.40;7.82;;;;;;;;;;5002759;28;20060;-55
2022/03/13 05:44:27;;;;;;;17.83;7.03;;;;;;;;;;4990779;28;20058;-54
2022/03/13 05:46:54;;;;;;;15.25;6.55;;;;;;;;;;4999524;28;20050;-59
2022/03/13 05:49:22;;;;;;;14.10;7.07;;;;;;;;;;4990987;28;20054;-56
2022/03/13 05:51:48;;;;;;;16.23;7.22;;;;;;;;;;4985252;28;20100;-57
2022/03/13 05:54:19;;;;;;;19.08;7.32;;;;;;;;;;5007921;28;20057;-58
2022/03/13 05:56:47;;;;;;;13.82;6.35;;;;;;;;;;4995378;28;20085;-55
2022/03/13 05:59:14;;;;;;;15.80;6.18;;;;;;;;;;5007719;28;20053;-59
2022/03/13 06:01:42;;;;;;;15.50;6.93;;;;;;;;;;4982799;28;20042;-54
2022/03/13 06:04:10;;;;;;;19.73;7.05;;;;;;;;;;4991726;28;20084;-54
2022/03/13 06:06:39;;;;;;;16.73;6.82;;;;;;;;;;4983714;28;20085;-57
2022/03/13 06:09:06;;;;;;;13.13;6.47;;;;;;;;;;4991857;28;20069;-58
2022/03/13 06:11:32;;;;;;;17.17;6.57;;;;;;;;;;4985752;28;20057;-55
2022/03/13 06:13:59;;;;;;;12.75;6.45;;;;;;;;;;4991377;28;20064;-56
2022/03/13 06:16:25;;;;;;;13.23;6.38;;;;;;;;;;4987044;28;20065;-54
2022/03/13 06:18:52;;;;;;;14.55;6.75;;;;;;;;;;4989970;28;20050;-60
2022/03/13 06:21:18;;;;;;;16.02;5.93;;;;;;;;;;4988584;28;20066;-55
2022/03/13 06:23:47;;;;;;;17.85;6.80;;;;;;;;;;4986630;28;20057;-58
2022/03/13 06:26:15;;;;;;;15.98;6.40;;;;;;;;;;5005293;28;20158;-55
2022/03/13 06:28:42;;;;;;;13.95;6.35;;;;;;;;;;4986168;28;20085;-57
2022/03/13 06:31:09;;;;;;;15.98;6.13;;;;;;;;;;4989638;28;20054;-50
2022/03/13 06:33:37;;;;;;;16.70;5.90;;;;;;;;;;4987304;28;20258;-58
2022/03/13 06:36:04;;;;;;;14.77;6.43;;;;;;;;;;4991220;28;20074;-53
2022/03/13 06:38:31;;;;;;;14.02;6.38;;;;;;;;;;4999977;28;20057;-60
2022/03/13 06:40:59;;;;;;;13.57;6.20;;;;;;;;;;4988248;28;20054;-57
2022/03/13 06:43:27;;;;;;;14.33;6.23;;;;;;;;;;4984589;28;20120;-55
2022/03/13 06:45:53;;;;;;;14.93;5.65;;;;;;;;;;4988877;28;20109;-58
2022/03/13 06:48:21;;;;;;;15.05;5.55;;;;;;;;;;4984213;28;20062;-57
2022/03/13 06:50:48;;;;;;;13.00;6.25;;;;;;;;;;4988161;28;20056;-57
2022/03/13 06:53:15;;;;;;;12.55;5.65;;;;;;;;;;4998896;28;20047;-59
2022/03/13 06:55:42;;;;;;;15.13;5.93;;;;;;;;;;5008946;28;20053;-56
2022/03/13 06:58:10;;;;;;;13.23;5.95;;;;;;;;;;4974921;28;20049;-57
2022/03/13 07:00:37;;;;;;;15.38;6.45;;;;;;;;;;4990795;28;20057;-51
2022/03/13 07:03:03;;;;;;;15.23;5.45;;;;;;;;;;4995240;28;20061;-52
2022/03/13 07:05:31;;;;;;;17.80;6.18;;;;;;;;;;4992769;28;20103;-57
2022/03/13 07:07:58;;;;;;;15.95;6.63;;;;;;;;;;5008212;28;20068;-57
2022/03/13 07:10:24;;;;;;;12.98;6.10;;;;;;;;;;4985132;28;20054;-52
2022/03/13 07:12:52;;;;;;;13.05;6.18;;;;;;;;;;5008101;28;20045;-54
2022/03/13 07:15:20;;;;;;;14.98;6.50;;;;;;;;;;5001654;28;20054;-52
2022/03/13 07:17:47;;;;;;;12.82;5.88;;;;;;;;;;5007310;28;20050;-53
2022/03/13 07:20:14;;;;;;;13.05;5.80;;;;;;;;;;4984324;28;20100;-55
2022/03/13 07:22:42;;;;;;;14.18;5.68;;;;;;;;;;5005578;28;20061;-59
2022/03/13 07:25:09;;;;;;;15.55;6.60;;;;;;;;;;4979973;28;20050;-57
2022/03/13 07:27:37;;;;;;;12.30;5.95;;;;;;;;;;4990325;28;20092;-54
2022/03/13 07:30:04;;;;;;;13.70;6.30;;;;;;;;;;4984703;28;20140;-53
2022/03/13 07:32:34;;;;;;;13.13;6.22;;;;;;;;;;4991982;28;20138;-53
2022/03/13 07:35:00;;;;;;;12.80;5.95;;;;;;;;;;5000066;28;20042;-50
2022/03/13 07:37:27;;;;;;;16.58;6.07;;;;;;;;;;4991458;28;20050;-55
2022/03/13 07:39:55;;;;;;;13.48;5.43;;;;;;;;;;4985170;28;20046;-55
2022/03/13 07:42:22;;;;;;;16.63;6.00;;;;;;;;;;4991811;28;20061;-51
2022/03/13 07:44:48;;;;;;;13.82;6.43;;;;;;;;;;4984411;28;20058;-60
2022/03/13 07:47:15;;;;;;;13.18;5.45;;;;;;;;;;5007180;28;20096;-59
2022/03/13 07:49:43;;;;;;;14.20;5.75;;;;;;;;;;4993043;28;20049;-58
2022/03/13 07:52:10;;;;;;;12.88;5.15;;;;;;;;;;5005226;28;20054;-59
2022/03/13 07:54:36;;;;;;;12.35;5.55;;;;;;;;;;5009646;28;20058;-58
2022/03/13 07:57:03;;;;;;;14.05;6.18;;;;;;;;;;4988979;28;20058;-56
2022/03/13 07:59:30;;;;;;;13.98;6.10;;;;;;;;;;5011258;28;20065;-58
2022/03/13 08:01:56;;;;;;;11.55;5.57;;;;;;;;;;4999720;28;20062;-56
2022/03/13 08:04:24;;;;;;;11.00;5.20;;;;;;;;;;4994584;28;20167;-51
2022/03/13 08:06:52;;;;;;;12.43;5.73;;;;;;;;;;5001542;28;20065;-52
2022/03/13 08:09:19;;;;;;;12.13;5.67;;;;;;;;;;5007216;28;20307;-54
2022/03/13 08:11:45;;;;;;;10.43;5.18;;;;;;;;;;5004945;28;20054;-61
2022/03/13 08:14:12;;;;;;;14.27;5.75;;;;;;;;;;5007314;28;20055;-58
2022/03/13 08:16:39;;;;;;;16.60;6.82;;;;;;;;;;4998373;28;20049;-57
2022/03/13 08:19:06;;;;;;;15.40;5.40;;;;;;;;;;5010821;28;20136;-54
2022/03/13 08:21:32;;;;;;;11.75;5.43;;;;;;;;;;5003059;28;20058;-58
2022/03/13 08:24:00;;;;;;;14.43;5.63;;;;;;;;;;5007588;28;20116;-60
2022/03/13 08:26:27;;;;;;;13.68;6.00;;;;;;;;;;4986776;28;20050;-51
2022/03/13 08:28:54;;;;;;;11.15;5.00;;;;;;;;;;5010319;28;20049;-55
2022/03/13 08:31:21;;;;;;;17.90;5.90;;;;;;;;;;5009754;28;20042;-57
2022/03/13 08:33:50;;;;;;;13.27;5.35;;;;;;;;;;5006984;28;20137;-54
2022/03/13 08:36:17;;;;;;;11.27;5.80;;;;;;;;;;5009251;28;20077;-56
2022/03/13 08:38:43;;;;;;;13.38;5.75;;;;;;;;;;5001101;28;20081;-54
2022/03/13 08:41:11;;;;;;;18.00;5.75;;;;;;;;;;4993877;28;20082;-56
2022/03/13 08:43:38;;;;;;;13.45;5.68;;;;;;;;;;4988301;28;20065;-56
2022/03/13 08:46:05;;;;;;;13.52;5.72;;;;;;;;;;4994070;28;20080;-56
2022/03/13 08:48:32;;;;;;;14.23;5.80;;;;;;;;;;4996764;28;20112;-55
2022/03/13 08:50:58;;;;;;;15.07;5.75;;;;;;;;;;4993602;28;20058;-55
2022/03/13 08:53:25;;;;;;;12.82;5.40;;;;;;;;;;4995853;28;20069;-56
2022/03/13 08:55:52;;;;;;;13.18;5.68;;;;;;;;;;4993457;28;20057;-53
2022/03/13 08:58:20;;;;;;;14.82;6.32;;;;;;;;;;4996924;28;20065;-53
2022/03/13 09:00:50;;;;;;;12.48;5.63;;;;;;;;;;5009436;28;20057;-56
2022/03/13 09:03:18;;;;;;;12.27;5.78;;;;;;;;;;4999337;28;20061;-58
2022/03/13 09:05:44;;;;;;;13.43;5.72;;;;;;;;;;4993423;28;20050;-56
2022/03/13 09:08:11;;;;;;;15.88;5.63;;;;;;;;;;5003662;28;20056;-49
2022/03/13 09:10:37;;;;;;;13.90;5.88;;;;;;;;;;4993952;28;20069;-54
2022/03/13 09:13:04;;;;;;;12.75;5.05;;;;;;;;;;4989691;28;20108;-58
2022/03/13 09:15:32;;;;;;;12.45;5.05;;;;;;;;;;5008155;28;20054;-56
2022/03/13 09:18:02;;;;;;;17.53;5.80;;;;;;;;;;5007884;28;20042;-55
2022/03/13 09:20:28;;;;;;;16.80;5.82;;;;;;;;;;4987805;28;20305;-60
2022/03/13 09:22:56;;;;;;;13.02;5.47;;;;;;;;;;5010922;28;20042;-61
2022/03/13 09:25:22;;;;;;;13.82;5.75;;;;;;;;;;4988205;28;20046;-52
2022/03/13 09:27:52;;;;;;;12.85;4.85;;;;;;;;;;4992984;28;20081;-56
2022/03/13 09:30:18;;;;;;;14.25;6.18;;;;;;;;;;4991687;28;20129;-54
2022/03/13 09:32:47;;;;;;;16.60;6.03;;;;;;;;;;4989363;28;20145;-52
2022/03/13 09:35:14;;;;;;;13.68;6.63;;;;;;;;;;5002004;28;20124;-55
2022/03/13 09:37:41;;;;;;;13.23;5.78;;;;;;;;;;5004407;28;20131;-54
2022/03/13 09:40:09;;;;;;;12.63;5.97;;;;;;;;;;4984454;28;20061;-53
2022/03/13 09:42:35;;;;;;;14.03;6.07;;;;;;;;;;5008182;28;20065;-55
2022/03/13 09:45:02;;;;;;;12.27;5.63;;;;;;;;;;4984888;28;20077;-54
2022/03/13 09:47:29;;;;;;;18.35;5.53;;;;;;;;;;5008246;28;20049;-57
2022/03/13 09:49:57;;;;;;;12.98;6.05;;;;;;;;;;4997112;28;20076;-55
2022/03/13 09:52:26;;;;;;;17.38;5.95;;;;;;;;;;5006536;28;20054;-54
2022/03/13 09:54:52;;;;;;;12.48;5.95;;;;;;;;;;4985233;28;20064;-57
2022/03/13 09:57:20;;;;;;;14.45;5.75;;;;;;;;;;4990039;28;20128;-54
2022/03/13 09:59:47;;;;;;;13.77;6.10;;;;;;;;;;5006696;28;20050;-54
2022/03/13 10:02:13;;;;;;;16.42;6.05;;;;;;;;;;4999364;28;20058;-53
2022/03/13 10:04:40;;;;;;;14.38;5.63;;;;;;;;;;4986506;28;20141;-57
2022/03/13 10:07:09;;;;;;;13.93;5.30;;;;;;;;;;5007050;28;20077;-56
2022/03/13 10:09:37;;;;;;;16.52;6.47;;;;;;;;;;5010115;28;20095;-54
2022/03/13 10:12:05;;;;;;;13.23;6.07;;;;;;;;;;4988988;28;20057;-59
2022/03/13 10:14:32;;;;;;;16.10;6.32;;;;;;;;;;4989840;28;20053;-57
2022/03/13 10:16:58;;;;;;;14.25;6.32;;;;;;;;;;4999898;28;20209;-53
2022/03/13 10:19:27;;;;;;;12.93;5.85;;;;;;;;;;4990630;28;20057;-52
2022/03/13 10:22:01;;;;;;;16.90;6.45;;;;;;;;;;4985010;28;20054;-58
2022/03/13 10:24:39;;;;;;;14.63;5.70;;;;;;;;;;4998590;28;20081;-51
2022/03/13 10:27:09;;;;;;;14.23;5.50;;;;;;;;;;4991599;28;20104;-53
2022/03/13 10:29:36;;;;;;;14.75;6.57;;;;;;;;;;4990923;28;20305;-57
2022/03/13 10:32:05;;;;;;;13.48;5.82;;;;;;;;;;4985092;28;20050;-59
2022/03/13 10:34:32;;;;;;;17.23;6.85;;;;;;;;;;5005128;28;20077;-55
2022/03/13 10:36:59;;;;;;;17.40;6.82;;;;;;;;;;4984822;28;20046;-56
2022/03/13 10:39:26;;;;;;;14.18;5.95;;;;;;;;;;5007345;28;20144;-54
2022/03/13 10:41:59;;;;;;;15.38;5.88;;;;;;;;;;5001635;28;20077;-52
2022/03/13 10:44:27;;;;;;;16.15;6.93;;;;;;;;;;4990463;28;20053;-54
2022/03/13 10:46:54;;;;;;;13.57;5.40;;;;;;;;;;4991460;28;20074;-54
2022/03/13 10:49:36;;;;;;;14.60;6.40;;;;;;;;;;4990790;28;20104;-54
2022/03/13 10:52:04;;;;;;;16.88;7.10;;;;;;;;;;5000978;28;20049;-53
2022/03/13 10:54:34;;;;;;;19.45;8.18;;;;;;;;;;4981295;28;20054;-52
2022/03/13 10:57:06;;;;;;;14.00;6.68;;;;;;;;;;4991311;28;20050;-55
2022/03/13 10:59:34;;;;;;;16.52;6.72;;;;;;;;;;5013290;28;20061;-62
2022/03/13 11:02:14;;;;;;;15.60;6.20;;;;;;;;;;5025120;28;20046;-61
2022/03/13 11:04:48;;;;;;;18.70;7.45;;;;;;;;;;4988488;28;20292;-58
2022/03/13 11:07:17;;;;;;;19.30;7.95;;;;;;;;;;4990111;28;20054;-60
2022/03/13 11:09:44;;;;;;;17.05;6.88;;;;;;;;;;5000628;28;20073;-61
2022/03/13 11:12:17;;;;;;;16.02;7.75;;;;;;;;;;4989939;28;20045;-59
2022/03/13 11:14:45;;;;;;;13.05;6.28;;;;;;;;;;4999764;28;20061;-60
2022/03/13 11:17:12;;;;;;;14.57;6.50;;;;;;;;;;5024867;28;20053;-56
2022/03/13 11:19:40;;;;;;;14.60;6.40;;;;;;;;;;5006076;28;20058;-59
2022/03/13 11:22:07;;;;;;;16.27;6.55;;;;;;;;;;4987909;28;20058;-60
2022/03/13 11:24:36;;;;;;;13.90;6.18;;;;;;;;;;4974453;28;20121;-62
2022/03/13 11:27:05;;;;;;;16.60;7.03;;;;;;;;;;4975501;28;20062;-55
2022/03/13 11:29:44;;;;;;;14.50;6.43;;;;;;;;;;4978391;28;20061;-58
2022/03/13 11:32:31;;;;;;;11.68;5.80;;;;;;;;;;4993170;28;20065;-59
2022/03/13 11:35:17;;;;;;;12.38;6.28;;;;;;;;;;5002677;28;20058;-60
2022/03/13 11:37:44;;;;;;;15.02;6.63;;;;;;;;;;4983319;28;20061;-58
2022/03/13 11:40:15;;;;;;;10.45;4.88;;;;;;;;;;4990555;28;20080;-60
2022/03/13 11:42:47;;;;;;;13.68;6.22;;;;;;;;;;4981544;28;20112;-59
2022/03/13 11:45:34;;;;;;;13.07;6.03;;;;;;;;;;4987746;28;20056;-58
2022/03/13 11:48:22;;;;;;;14.83;6.03;;;;;;;;;;5009351;28;20162;-60
2022/03/13 11:50:51;;;;;;;15.73;6.22;;;;;;;;;;4987568;28;20144;-55
2022/03/13 11:53:20;;;;;;;12.00;5.85;;;;;;;;;;5008925;28;20049;-58
2022/03/13 11:56:10;;;;;;;13.43;6.13;;;;;;;;;;5001834;28;20054;-54
2022/03/13 11:58:36;;;;;;;;;;;;;;;;;;4987483;28;20057;-61
2022/03/13 12:01:07;;;;;;;13.20;6.38;;;;;;;;;;4977052;28;20003;-58
2022/03/13 12:03:34;;;;;;;13.60;5.88;;;;;;;;;;4974002;28;20050;-55
2022/03/13 12:06:02;;;;;;;16.05;6.40;;;;;;;;;;5002488;28;20053;-58
2022/03/13 12:08:44;;;;;;;12.52;5.50;;;;;;;;;;5026354;28;20053;-56
2022/03/13 12:11:25;;;;;;;12.98;5.63;;;;;;;;;;5010750;28;20089;-61
2022/03/13 12:13:52;;;;;;;16.30;5.57;;;;;;;;;;4992560;28;20054;-58
2022/03/13 12:16:20;;;;;;;14.00;5.78;;;;;;;;;;4984292;28;20093;-59
2022/03/13 12:18:57;;;;;;;13.70;5.93;;;;;;;;;;4989841;28;20182;-58
2022/03/13 12:21:23;;;;;;;10.20;5.00;;;;;;;;;;4998039;28;20064;-59
2022/03/13 12:23:56;;;;;;;11.10;4.85;;;;;;;;;;5025357;28;20060;-61
2022/03/13 12:26:27;;;;;;;10.27;4.80;;;;;;;;;;4987174;28;20057;-58
2022/03/13 12:28:55;;;;;;;13.98;5.88;;;;;;;;;;4992400;28;20073;-62
2022/03/13 12:31:23;;;;;;;14.88;5.57;;;;;;;;;;4993872;28;20141;-60
2022/03/13 12:33:53;;;;;;;11.60;5.50;;;;;;;;;;4999200;28;20069;-61
2022/03/13 12:36:23;;;;;;;13.07;5.40;;;;;;;;;;4985489;28;20058;-61
2022/03/13 12:38:52;;;;;;;9.90;4.00;;;;;;;;;;5009264;28;20058;-60
2022/03/13 12:41:19;;;;;;;11.02;5.15;;;;;;;;;;4995175;28;20064;-59
2022/03/13 12:43:47;;;;;;;11.57;6.00;;;;;;;;;;5008846;28;20057;-59
2022/03/13 12:46:14;;;;;;;9.82;5.05;;;;;;;;;;5007950;28;20135;-61
2022/03/13 12:48:52;;;;;;;10.63;4.97;;;;;;;;;;4986230;28;20050;-62
2022/03/13 12:51:35;;;;;;;10.25;4.97;;;;;;;;;;4992925;28;20128;-60
2022/03/13 12:54:04;;;;;;;13.35;5.10;;;;;;;;;;4992257;28;20049;-61
2022/03/13 12:56:30;;;;;;;12.65;5.22;;;;;;;;;;4993160;28;20085;-59
2022/03/13 12:58:58;;;;;;;13.13;5.65;;;;;;;;;;4987080;28;20080;-60
2022/03/13 13:01:25;;;;;;;11.55;4.95;;;;;;;;;;4992563;28;20080;-59
2022/03/13 13:03:55;;;;;;;11.38;5.20;;;;;;;;;;4984070;28;20145;-56
2022/03/13 13:06:29;;;;;;;10.43;4.72;;;;;;;;;;5008125;28;20046;-57
2022/03/13 13:08:55;;;;;;;11.68;4.72;;;;;;;;;;5002787;28;20041;-56
2022/03/13 13:11:28;;;;;;;12.25;5.13;;;;;;;;;;4991951;28;20053;-55
2022/03/13 13:13:59;;;;;;;10.90;5.03;;;;;;;;;;4995034;28;20054;-60
2022/03/13 13:16:27;;;;;;;10.38;4.88;;;;;;;;;;5022389;28;20104;-61
2022/03/13 13:18:54;;;;;;;;;;;;;;;;;;4994203;28;20128;-62
2022/03/13 13:21:34;;;;;;;16.35;6.53;;;;;;;;;;5007464;28;19929;-62
2022/03/13 13:24:01;;;;;;;43.53;19.90;;;;;;;;;;4990585;28;20059;-60
2022/03/13 13:26:42;;;;;;;39.53;17.48;;;;;;;;;;4986564;28;20057;-61
2022/03/13 13:29:08;;;;;;;49.13;25.88;;;;;;;;;;4999790;28;20066;-62
2022/03/13 13:31:35;;;;;;;45.15;23.48;;;;;;;;;;5007902;28;20058;-63
2022/03/13 13:34:13;;;;;;;35.15;19.40;;;;;;;;;;4985837;28;20062;-63
2022/03/13 13:36:41;;;;;;;35.17;18.25;;;;;;;;;;5008602;28;20054;-60
2022/03/13 13:39:08;;;;;;;38.55;20.92;;;;;;;;;;5000525;28;20050;-62
2022/03/13 13:41:35;;;;;;;42.50;20.02;;;;;;;;;;4991271;28;20049;-62
2022/03/13 13:44:03;;;;;;;26.65;13.32;;;;;;;;;;4988334;28;20060;-62
2022/03/13 13:46:30;;;;;;;20.33;11.23;;;;;;;;;;5002691;28;20061;-63
2022/03/13 13:48:57;;;;;;;21.52;10.98;;;;;;;;;;4983017;28;20046;-63
2022/03/13 13:51:25;;;;;;;21.38;9.50;;;;;;;;;;4991214;28;20081;-62
2022/03/13 13:53:52;;;;;;;;;;;;;;;;;;4991123;28;20085;-62
2022/03/13 13:56:25;;;;;;;24.90;13.27;;;;;;;;;;4986990;28;19952;-61
2022/03/13 13:58:52;;;;;;;22.40;11.45;;;;;;;;;;4994652;28;20056;-62
2022/03/13 14:01:26;;;;;;;17.40;9.88;;;;;;;;;;4987445;28;20070;-63
2022/03/13 14:03:53;;;;;;;21.90;10.95;;;;;;;;;;4999376;28;20065;-63
2022/03/13 14:06:20;;;;;;;18.90;8.65;;;;;;;;;;5000812;28;20054;-61
2022/03/13 14:08:47;;;;;;;13.57;6.60;;;;;;;;;;4990222;28;20053;-63
2022/03/13 14:11:16;;;;;;;15.52;7.78;;;;;;;;;;4984630;28;20081;-60
2022/03/13 14:13:48;;;;;;;17.23;7.95;;;;;;;;;;4987557;28;20050;-62
2022/03/13 14:16:17;;;;;;;18.50;8.88;;;;;;;;;;4983665;28;20058;-62
2022/03/13 14:18:44;;;;;;;14.57;6.65;;;;;;;;;;5005923;28;20058;-60
2022/03/13 14:21:11;;;;;;;17.20;8.75;;;;;;;;;;4998439;28;20074;-62
2022/03/13 14:23:38;;;;;;;13.07;6.68;;;;;;;;;;4989278;28;20100;-62
2022/03/13 14:26:04;;;;;;;16.08;7.93;;;;;;;;;;5000988;28;20100;-62
2022/03/13 14:28:31;;;;;;;15.23;8.07;;;;;;;;;;4990831;28;20068;-62
2022/03/13 14:31:03;;;;;;;12.00;4.72;;;;;;;;;;5002455;28;20054;-63
2022/03/13 14:33:32;;;;;;;14.05;7.28;;;;;;;;;;5010836;28;20053;-62
2022/03/13 14:36:00;;;;;;;14.50;7.35;;;;;;;;;;5000162;28;20163;-63
2022/03/13 14:38:27;;;;;;;11.57;5.63;;;;;;;;;;4990693;28;20054;-63
2022/03/13 14:40:54;;;;;;;14.40;6.38;;;;;;;;;;5002025;28;20296;-63